• Join FlightAware (Why Join?)
  • Login
  • US Flag 
02:36AM EDT


 

Airport Tracker/Info


-or-


 

Live Flight TrackerFlight Track Log ✈ RPA4224 ✈ 22-Aug-2014 ✈ KORD - KDSM

Flight Track Log - Related Links

Times and Time Zones

All times are in EDT time to prevent confusion due to time zone crossing. See the RPA4224 flight status page for this flight to view local times or setup timezone preferences in your user account.

Time Position Orientation Groundspeed Altitude Reporting Facility
EDT Latitude Longitude Course Direction KTS MPH feet Rate Location/Type
11:28PM 41.9333 -87.9167 270° West 156 180 2,100  Level Chicago TRACON
11:29PM 41.9167 -87.9833 251° West 203 234 3,600 1,680 Climbing Chicago TRACON
11:29PM 41.9028 -88.0194 243° Southwest 218 251 4,600 2,460 Climbing Chicago Center
11:30PM 41.8989 -88.1217 267° West 274 315 7,500 3,000 Climbing Chicago Center
11:31PM 41.9277 -88.5075 264° West  Level FlightAware Approximate
11:31PM 41.9017 -88.2333 272° West 278 320 10,700  Level Chicago Center
11:32PM 41.9167 -88.6596 270° West  Level FlightAware Approximate
11:33PM 41.9000 -88.8088 270° West  Level FlightAware Approximate
11:33PM 41.9028 -88.3408 271° West 286 329 12,500  Level Chicago Center
11:34PM 41.9056 -88.4697 272° West 344 396 14,200 1,860 Climbing Chicago Center
11:35PM 41.9092 -88.6011 272° West 352 405 16,400 1,860 Climbing Chicago Center
11:36PM 41.9122 -88.7483 272° West 369 425 18,000 1,620 Climbing Chicago Center
11:37PM 41.9106 -88.8881 269° West 378 435 19,800 1,620 Climbing Chicago Center
11:38PM 41.9053 -89.0344 267° West 389 448 21,400 1,500 Climbing Chicago Center
11:39PM 41.9008 -89.1794 268° West 392 451 22,900 1,260 Climbing Chicago Center
11:40PM 41.8781 -89.3272 258° West 399 459 24,000 540 Climbing Chicago Center
11:41PM 41.8456 -89.4753 254° West 410 472 24,000  Level Chicago Center
11:42PM 41.8111 -89.6217 253° West 412 474 24,000  Level Chicago Center
11:43PM 41.7753 -89.7750 253° West 417 480 24,000  Level Chicago Center
11:44PM 41.7481 -89.9275 257° West 420 483 24,000  Level Chicago Center
11:45PM 41.7317 -90.0831 262° West 420 483 24,000  Level Chicago Center
11:46PM 41.7214 -90.2411 265° West 422 486 24,000  Level Chicago Center
11:47PM 41.7125 -90.4025 266° West 435 501 24,000  Level Chicago Center
11:48PM 41.7069 -90.5597 267° West 430 495 24,000  Level Chicago Center
11:49PM 41.6997 -90.7189 267° West 424 488 24,000  Level Chicago Center
11:50PM 41.6928 -90.8750 267° West 423 487 24,000  Level Chicago Center
11:51PM 41.6847 -91.0331 266° West 423 487 24,000  Level Chicago Center
11:52PM 41.6781 -91.1906 267° West 423 487 24,000 -60 Level Chicago Center
11:53PM 41.6639 -91.3756 264° West 422 486 23,900 -660 Descending Chicago Center
11:54PM 41.6408 -91.5289 259° West 422 486 22,700 -1,260 Descending Chicago Center
11:55PM 41.6192 -91.6803 259° West 417 480 21,400 -1,320 Descending Chicago Center
11:56PM 41.6006 -91.8300 261° West 412 474 20,100 -1,260 Descending Chicago Center
11:57PM 41.5864 -91.9761 263° West 400 460 18,900 -1,140 Descending Chicago Center
11:58PM 41.5744 -92.1217 264° West 399 459 17,800 -1,140 Descending Chicago Center
11:59PM 41.5631 -92.2647 264° West 393 452 16,700 -1,080 Descending Chicago Center
12:00AM 41.5511 -92.4028 263° West 383 441 15,700 -1,140 Descending Chicago Center
12:01AM 41.5386 -92.5381 263° West 372 428 14,500 -1,140 Descending Chicago Center
12:02AM 41.5367 -92.6719 269° West 365 420 13,500 -1,020 Descending Chicago Center
12:03AM 41.5361 -92.8106 270° West 349 402 12,500 -1,020 Descending Chicago Center
12:04AM 41.5239 -92.9161 261° West 298 343 11,500 -1,380 Descending Chicago Center
12:05AM 41.5125 -93.0200 262° West 292 336 9,800 -1,800 Descending Chicago Center
12:05AM 41.5108 -93.0767 268° West 283 326 8,700 -1,620 Descending Minneapolis Center
12:06AM 41.4919 -93.1689 255° West 277 319 7,400 -1,500 Descending Minneapolis Center
12:07AM 41.4794 -93.2747 261° West 272 313 5,900 -1,320 Descending Minneapolis Center
12:08AM 41.4683 -93.3692 261° West 262 302 4,800 -1,140 Descending Minneapolis Center
12:09AM 41.4739 -93.3744 325° Northwest 256 295 4,600 -1,020 Descending Minneapolis Center
12:09AM 41.4597 -93.4586 257° West 249 287 3,800 -1,020 Descending Minneapolis Center
12:10AM 41.4650 -93.4633 326° Northwest 240 276 3,600 -720 Descending Minneapolis Center
12:11AM 41.4558 -93.5522 262° West 232 267 3,000 -360 Descending Minneapolis Center
12:11AM 41.4428 -93.6231 256° West 207 238 3,000  Level Minneapolis Center
12:12AM 41.4486 -93.6300 318° Northwest 183 211 3,000 -240 Level Minneapolis Center
12:12AM 41.4439 -93.6906 264° West 189 217 2,800 -300 Descending Minneapolis Center
12:13AM 41.4556 -93.6936 349° North 169 194 2,700 -840 Descending Minneapolis Center
12:14AM 41.4819 -93.7261 317° Northwest 174 200 2,000 -840 Descending Minneapolis Center
12:14AM 41.4975 -93.7147 29° Northeast 162 186 1,900 -840 Descending Minneapolis Center
12:15AM 41.5156 -93.6925 43° Northeast 146 168 1,200 -840 Descending Minneapolis Center
12:15AM 41.5242 -93.6781 51° Northeast 136 157 1,100 -300 Descending Minneapolis Center
12:16AM 41.5350 -93.6564 56° Northeast 136 157 900 -240 Descending Minneapolis Center